Time;durP1;ratioP1;P1;durP2;ratioP2;P2;SDS_P1;SDS_P2;PMS_P1;PMS_P2;Temp;Humidity;BMP_temperature;BMP_pressure;BME280_temperature;BME280_humidity;BME280_pressure;Samples;Min_cycle;Max_cycle;Signal;HPM_P1;HPM_P2
2022/04/20 00:00:01;;;;;;;6.20;2.23;;;;;;;;;;5060603;28;20646;-71
2022/04/20 00:02:27;;;;;;;8.90;2.70;;;;;;;;;;5046406;28;20767;-72
2022/04/20 00:04:55;;;;;;;6.17;2.33;;;;;;;;;;5040664;28;20900;-72
2022/04/20 00:07:22;;;;;;;9.97;2.73;;;;;;;;;;5042185;28;20212;-72
2022/04/20 00:09:48;;;;;;;6.50;2.20;;;;;;;;;;5030105;28;20270;-72
2022/04/20 00:12:15;;;;;;;6.90;2.20;;;;;;;;;;5032419;28;20911;-72
2022/04/20 00:14:42;;;;;;;5.73;2.47;;;;;;;;;;5030076;28;20198;-72
2022/04/20 00:17:11;;;;;;;7.20;2.67;;;;;;;;;;5042864;28;20180;-72
2022/04/20 00:19:39;;;;;;;7.20;2.23;;;;;;;;;;5024247;28;20673;-72
2022/04/20 00:22:06;;;;;;;7.57;2.47;;;;;;;;;;5030940;28;20220;-72
2022/04/20 00:24:34;;;;;;;8.17;2.63;;;;;;;;;;5026058;28;20199;-72
2022/04/20 00:27:00;;;;;;;9.93;2.40;;;;;;;;;;5043346;28;20580;-72
2022/04/20 00:29:27;;;;;;;6.43;2.50;;;;;;;;;;5025422;28;20191;-72
2022/04/20 00:31:54;;;;;;;7.13;2.00;;;;;;;;;;5021148;28;20208;-72
2022/04/20 00:34:21;;;;;;;8.00;2.10;;;;;;;;;;5035138;28;20200;-72
2022/04/20 00:36:52;;;;;;;7.43;2.47;;;;;;;;;;5039829;28;20222;-72
2022/04/20 00:39:19;;;;;;;10.87;2.67;;;;;;;;;;5031800;28;20198;-72
2022/04/20 00:41:46;;;;;;;8.07;2.23;;;;;;;;;;5030059;28;20400;-72
2022/04/20 00:44:14;;;;;;;4.83;2.10;;;;;;;;;;5036382;28;20195;-72
2022/04/20 00:46:44;;;;;;;5.90;2.10;;;;;;;;;;5035609;28;20218;-72
2022/04/20 00:49:11;;;;;;;10.60;2.60;;;;;;;;;;5045218;28;20896;-72
2022/04/20 00:51:48;;;;;;;8.57;2.60;;;;;;;;;;5027079;28;20202;-71
2022/04/20 00:54:16;;;;;;;6.90;2.00;;;;;;;;;;5034782;28;20196;-71
2022/04/20 00:56:43;;;;;;;6.37;2.20;;;;;;;;;;5036963;28;20514;-72
2022/04/20 00:59:10;;;;;;;8.87;2.90;;;;;;;;;;5021517;28;20694;-71
2022/04/20 01:01:37;;;;;;;10.03;2.80;;;;;;;;;;5036205;28;20191;-72
2022/04/20 01:04:03;;;;;;;10.40;3.17;;;;;;;;;;5030297;28;20286;-72
2022/04/20 01:06:31;;;;;;;11.33;2.60;;;;;;;;;;5023637;28;20336;-71
2022/04/20 01:08:59;;;;;;;8.57;2.37;;;;;;;;;;5034869;28;20195;-72
2022/04/20 01:11:27;;;;;;;7.67;3.17;;;;;;;;;;5036836;28;21074;-72
2022/04/20 01:13:54;;;;;;;10.87;2.50;;;;;;;;;;5037840;28;20224;-72
2022/04/20 01:16:21;;;;;;;5.27;2.13;;;;;;;;;;5035415;28;20275;-72
2022/04/20 01:18:50;;;;;;;7.23;2.20;;;;;;;;;;5032182;28;20192;-72
2022/04/20 01:21:17;;;;;;;7.43;2.33;;;;;;;;;;5022987;28;20214;-72
2022/04/20 01:23:44;;;;;;;8.33;2.63;;;;;;;;;;5026217;28;20196;-72
2022/04/20 01:26:11;;;;;;;13.80;2.83;;;;;;;;;;5020240;28;20564;-71
2022/04/20 01:28:46;;;;;;;5.93;2.47;;;;;;;;;;5032967;28;20227;-72
2022/04/20 01:31:16;;;;;;;6.73;1.90;;;;;;;;;;5019928;28;20683;-71
2022/04/20 01:33:44;;;;;;;5.83;2.10;;;;;;;;;;5032646;28;20225;-72
2022/04/20 01:36:11;;;;;;;7.77;2.40;;;;;;;;;;5028178;28;20196;-71
2022/04/20 01:38:39;;;;;;;6.73;2.10;;;;;;;;;;5018908;28;20195;-72
2022/04/20 01:41:06;;;;;;;6.20;2.03;;;;;;;;;;5031595;28;20484;-71
2022/04/20 01:43:33;;;;;;;6.73;2.20;;;;;;;;;;5018725;28;20200;-72
2022/04/20 01:45:59;;;;;;;9.83;2.30;;;;;;;;;;5035201;28;20215;-72
2022/04/20 01:48:26;;;;;;;7.10;2.30;;;;;;;;;;5011391;28;20203;-72
2022/04/20 01:53:38;;;;;;;5.03;1.83;;;;;;;;;;5031398;28;20192;-72
2022/04/20 01:56:06;;;;;;;8.07;2.17;;;;;;;;;;5027318;28;20233;-72
2022/04/20 01:58:34;;;;;;;8.37;2.10;;;;;;;;;;5021705;28;20195;-72
2022/04/20 02:02:34;;;;;;;6.20;1.90;;;;;;;;;;5032910;28;20187;-72
2022/04/20 02:03:48;;;;;;;7.17;2.70;;;;;;;;;;5039792;28;20230;-72
2022/04/20 02:06:15;;;;;;;5.70;1.93;;;;;;;;;;5032583;28;20292;-71
2022/04/20 02:08:42;;;;;;;8.03;2.43;;;;;;;;;;5028438;28;20202;-72
2022/04/20 02:11:08;;;;;;;7.53;2.10;;;;;;;;;;5039629;28;22342;-71
2022/04/20 02:13:35;;;;;;;8.03;1.93;;;;;;;;;;5032821;28;20188;-72
2022/04/20 02:16:02;;;;;;;6.10;2.60;;;;;;;;;;5044236;28;20198;-71
2022/04/20 02:18:29;;;;;;;6.47;2.00;;;;;;;;;;5045565;28;20223;-72
2022/04/20 02:20:55;;;;;;;7.90;2.13;;;;;;;;;;5026398;28;20187;-72
2022/04/20 02:23:22;;;;;;;5.50;1.83;;;;;;;;;;5041866;28;20644;-71
2022/04/20 02:25:49;;;;;;;7.93;2.50;;;;;;;;;;5042786;28;20211;-71
2022/04/20 02:28:18;;;;;;;6.13;1.97;;;;;;;;;;5039672;28;20203;-71
2022/04/20 02:30:46;;;;;;;7.37;1.80;;;;;;;;;;5042709;28;20199;-71
2022/04/20 02:33:13;;;;;;;5.80;2.10;;;;;;;;;;5031210;28;20585;-72
2022/04/20 02:35:41;;;;;;;5.70;2.00;;;;;;;;;;5026001;28;20191;-72
2022/04/20 02:38:12;;;;;;;8.27;2.20;;;;;;;;;;5024467;28;20291;-72
2022/04/20 02:40:40;;;;;;;5.73;2.30;;;;;;;;;;5028894;28;20552;-72
2022/04/20 02:43:07;;;;;;;8.90;2.10;;;;;;;;;;5026623;28;20910;-71
2022/04/20 02:45:34;;;;;;;6.43;2.03;;;12.60;99.90;;;;;;5026783;28;20286;-72
2022/04/20 02:48:03;;;;;;;7.77;2.00;;;12.60;99.90;;;;;;5021398;28;20180;-72
2022/04/20 02:50:30;;;;;;;7.20;1.80;;;12.60;99.90;;;;;;5046603;28;20215;-72
2022/04/20 02:52:57;;;;;;;8.70;2.70;;;12.60;99.90;;;;;;5030271;28;20177;-71
2022/04/20 02:55:24;;;;;;;6.57;2.03;;;12.60;99.90;;;;;;5044370;28;20184;-71
2022/04/20 02:57:50;;;;;;;7.60;2.40;;;12.50;99.90;;;;;;5028206;28;20215;-72
2022/04/20 03:00:17;;;;;;;4.33;2.00;;;12.50;99.90;;;;;;5046006;28;20608;-72
2022/04/20 03:02:44;;;;;;;3.97;1.67;;;12.50;99.90;;;;;;5043841;28;20270;-72
2022/04/20 03:05:11;;;;;;;8.33;2.23;;;12.50;99.90;;;;;;5034863;28;20189;-72
2022/04/20 03:07:38;;;;;;;8.77;2.10;;;12.50;99.90;;;;;;5025927;28;20220;-72
2022/04/20 03:10:05;;;;;;;7.13;2.30;;;12.50;99.90;;;;;;5042150;28;20208;-72
2022/04/20 03:12:32;;;;;;;7.80;2.30;;;12.50;99.90;;;;;;5044609;28;20264;-72
2022/04/20 03:14:58;;;;;;;11.10;2.20;;;12.50;99.90;;;;;;5052496;28;20187;-72
2022/04/20 03:17:25;;;;;;;5.60;2.00;;;12.50;99.90;;;;;;5046969;28;20245;-72
2022/04/20 03:19:52;;;;;;;9.10;2.20;;;12.50;99.90;;;;;;5037578;28;20655;-72
2022/04/20 03:22:18;;;;;;;9.47;2.57;;;12.50;99.90;;;;;;5047643;28;20274;-72
2022/04/20 03:24:45;;;;;;;6.37;2.17;;;12.50;99.90;;;;;;5037159;28;20215;-72
2022/04/20 03:27:13;;;;;;;9.50;2.53;;;12.50;99.90;;;;;;5040552;28;20291;-71
2022/04/20 03:29:41;;;;;;;7.93;2.37;;;12.40;99.90;;;;;;5033782;28;20198;-72
2022/04/20 03:32:14;;;;;;;6.93;2.30;;;12.40;99.90;;;;;;5055885;28;20255;-71
2022/04/20 03:34:42;;;;;;;10.03;2.40;;;12.40;99.90;;;;;;5033167;28;20279;-72
2022/04/20 03:37:10;;;;;;;7.77;2.37;;;12.40;99.90;;;;;;5035774;28;20188;-71
2022/04/20 03:39:37;;;;;;;11.10;3.57;;;12.50;99.90;;;;;;5036641;28;20199;-72
2022/04/20 03:42:05;;;;;;;9.53;2.27;;;12.50;99.90;;;;;;5040215;28;20192;-72
2022/04/20 03:44:39;;;;;;;6.90;2.37;;;12.40;99.90;;;;;;5031322;28;20203;-71
2022/04/20 03:47:06;;;;;;;8.10;2.37;;;12.50;99.90;;;;;;5032248;28;20214;-72
2022/04/20 03:49:33;;;;;;;15.47;3.03;;;12.50;99.90;;;;;;5031685;28;20192;-72
2022/04/20 03:52:01;;;;;;;10.13;2.60;;;12.50;99.90;;;;;;5037702;28;20750;-72
2022/04/20 03:54:28;;;;;;;9.33;2.23;;;12.50;99.90;;;;;;5038784;28;20192;-72
2022/04/20 03:57:04;;;;;;;7.63;2.17;;;12.50;99.90;;;;;;5044839;28;20187;-71
2022/04/20 03:59:38;;;;;;;9.30;2.70;;;;;;;;;;5034344;28;20259;-71
2022/04/20 04:02:07;;;;;;;11.50;2.53;;;;;;;;;;5046066;28;20188;-72
2022/04/20 04:04:35;;;;;;;8.00;2.10;;;;;;;;;;5043438;28;20645;-72
2022/04/20 04:07:03;;;;;;;8.70;2.30;;;;;;;;;;5025005;28;20385;-72
2022/04/20 04:09:29;;;;;;;7.27;2.40;;;12.70;99.90;;;;;;5038604;28;20204;-71
2022/04/20 04:11:55;;;;;;;11.47;2.60;;;12.70;99.90;;;;;;5038854;28;20180;-71
2022/04/20 04:14:22;;;;;;;12.63;2.60;;;12.70;99.90;;;;;;5042521;28;20250;-71
2022/04/20 04:16:49;;;;;;;12.27;3.10;;;12.70;99.90;;;;;;5031771;28;20187;-71
2022/04/20 04:19:16;;;;;;;10.90;2.70;;;12.80;99.90;;;;;;5023742;28;20232;-71
2022/04/20 04:21:42;;;;;;;9.07;2.40;;;12.80;99.90;;;;;;5046587;28;20191;-72
2022/04/20 04:24:34;;;;;;;9.20;2.20;;;12.80;99.90;;;;;;5044668;28;20180;-72
2022/04/20 04:26:57;;;;;;;6.77;2.00;;;12.90;99.90;;;;;;5045078;28;20223;-72
2022/04/20 04:29:23;;;;;;;12.27;2.40;;;12.90;99.90;;;;;;5038142;28;20211;-72
2022/04/20 04:31:51;;;;;;;8.07;2.20;;;13.00;99.90;;;;;;5021227;28;20200;-72
2022/04/20 04:34:17;;;;;;;8.80;2.33;;;13.00;99.90;;;;;;5034747;28;20234;-72
2022/04/20 04:36:44;;;;;;;6.90;2.43;;;13.00;99.90;;;;;;5041685;28;20188;-72
2022/04/20 04:39:10;;;;;;;4.47;1.90;;;13.00;99.90;;;;;;5014679;28;20184;-72
2022/04/20 04:41:37;;;;;;;8.70;2.23;;;13.10;99.90;;;;;;5020134;28;20407;-72
2022/04/20 04:44:04;;;;;;;4.83;1.93;;;13.10;99.90;;;;;;5044740;28;20192;-72
2022/04/20 04:49:16;;;;;;;7.17;2.00;;;13.20;99.90;;;;;;5057811;28;20645;-72
2022/04/20 04:51:43;;;;;;;5.03;1.87;;;13.20;99.90;;;;;;5047208;28;20199;-72
2022/04/20 04:54:10;;;;;;;7.90;2.37;;;13.20;99.90;;;;;;5047028;28;20196;-72
2022/04/20 04:56:36;;;;;;;11.10;2.63;;;13.20;99.90;;;;;;5046346;28;20271;-72
2022/04/20 04:59:05;;;;;;;8.13;2.40;;;13.20;99.90;;;;;;5016522;28;20640;-72
2022/04/20 05:01:33;;;;;;;6.07;2.10;;;13.30;99.90;;;;;;5026507;28;20265;-72
2022/04/20 05:04:00;;;;;;;7.53;2.47;;;13.30;99.90;;;;;;5040188;28;20279;-71
2022/04/20 05:06:27;;;;;;;6.97;2.00;;;13.30;99.90;;;;;;5046936;28;20223;-72
2022/04/20 05:08:54;;;;;;;8.73;2.23;;;13.30;99.90;;;;;;5041387;28;20240;-72
2022/04/20 05:11:20;;;;;;;7.23;2.50;;;13.40;99.90;;;;;;5054797;28;21069;-72
2022/04/20 05:13:47;;;;;;;6.60;2.20;;;13.30;99.90;;;;;;5046172;28;20184;-72
2022/04/20 05:16:13;;;;;;;10.43;2.50;;;13.40;99.90;;;;;;5050063;28;20529;-72
2022/04/20 05:18:41;;;;;;;8.03;2.00;;;13.40;99.90;;;;;;5033643;28;20254;-72
2022/04/20 05:21:07;;;;;;;8.10;2.43;;;13.40;99.90;;;;;;5048561;28;20204;-72
2022/04/20 05:23:33;;;;;;;7.33;2.30;;;13.40;99.90;;;;;;5059748;28;20199;-72
2022/04/20 05:25:59;;;;;;;8.37;2.23;;;13.40;99.90;;;;;;5042957;28;20208;-72
2022/04/20 05:28:26;;;;;;;8.07;2.57;;;13.40;99.90;;;;;;5037943;28;20188;-72
2022/04/20 05:30:54;;;;;;;6.47;1.67;;;13.40;99.90;;;;;;5039118;28;20672;-72
2022/04/20 05:33:21;;;;;;;5.77;1.90;;;13.50;99.90;;;;;;5040673;28;20258;-72
2022/04/20 05:35:47;;;;;;;7.57;2.10;;;13.50;99.90;;;;;;5027544;28;20195;-72
2022/04/20 05:43:44;;;;;;;4.50;1.80;;;13.60;99.90;;;;;;5030893;28;20188;-72
2022/04/20 05:46:14;;;;;;;6.70;1.80;;;13.70;99.90;;;;;;5019810;28;20215;-72
2022/04/20 05:48:41;;;;;;;9.00;2.20;;;13.70;99.90;;;;;;5039407;28;20192;-72
2022/04/20 05:51:07;;;;;;;7.73;2.20;;;13.80;99.90;;;;;;5038327;28;20184;-72
2022/04/20 05:53:34;;;;;;;7.20;3.40;;;13.80;99.90;;;;;;5038503;28;20258;-71
2022/04/20 05:56:00;;;;;;;9.23;2.97;;;13.80;99.90;;;;;;5024715;28;20237;-72
2022/04/20 05:58:27;;;;;;;7.60;1.90;;;13.80;99.90;;;;;;5044178;28;20236;-72
2022/04/20 06:00:53;;;;;;;5.03;2.03;;;13.90;99.90;;;;;;5039482;28;20214;-72
2022/04/20 06:03:21;;;;;;;6.17;1.63;;;13.90;99.90;;;;;;5041353;28;20196;-72
2022/04/20 06:05:47;;;;;;;6.50;2.00;;;14.00;99.90;;;;;;5046398;28;20219;-72
2022/04/20 06:08:14;;;;;;;5.63;2.43;;;14.00;99.90;;;;;;5035604;28;20185;-71
2022/04/20 06:10:40;;;;;;;6.43;1.90;;;14.00;99.90;;;;;;5017988;28;20212;-73
2022/04/20 06:13:07;;;;;;;7.00;2.03;;;14.00;99.90;;;;;;5027447;28;20686;-72
2022/04/20 06:15:33;;;;;;;5.30;1.73;;;14.10;99.90;;;;;;5042273;28;20270;-72
2022/04/20 06:17:59;;;;;;;6.23;3.10;;;14.10;99.90;;;;;;5046275;28;20639;-72
2022/04/20 06:20:26;;;;;;;7.57;2.07;;;14.10;99.90;;;;;;5020317;28;20187;-72
2022/04/20 06:22:52;;;;;;;11.63;2.03;;;14.10;99.90;;;;;;5057459;28;20183;-72
2022/04/20 06:25:18;;;;;;;6.93;1.80;;;14.10;99.90;;;;;;5036204;28;20535;-71
2022/04/20 06:27:46;;;;;;;3.63;1.23;;;14.20;99.90;;;;;;5027117;28;20214;-72
2022/04/20 06:30:12;;;;;;;5.13;1.73;;;14.20;99.90;;;;;;5025585;28;20196;-72
2022/04/20 06:32:47;;;;;;;7.47;1.47;;;14.20;99.90;;;;;;5036624;28;20763;-72
2022/04/20 06:35:13;;;;;;;4.40;1.23;;;14.20;99.90;;;;;;5025114;28;20187;-72
2022/04/20 06:37:40;;;;;;;6.37;1.77;;;14.30;99.90;;;;;;5031277;28;20209;-72
2022/04/20 06:40:08;;;;;;;3.47;1.60;;;14.30;99.90;;;;;;5046154;28;20196;-72
2022/04/20 06:42:34;;;;;;;6.17;1.67;;;14.50;99.90;;;;;;5031111;28;20219;-72
2022/04/20 06:45:01;;;;;;;4.13;1.70;;;;;;;;;;5023927;28;20290;-72
2022/04/20 06:47:29;;;;;;;15.10;3.73;;;;;;;;;;5036448;28;20222;-72
2022/04/20 06:49:56;;;;;;;4.43;1.60;;;;;;;;;;5039444;28;20540;-72
2022/04/20 07:00:39;;;;;;;6.20;1.57;;;;;;;;;;5028901;28;20949;-72
2022/04/20 07:03:07;;;;;;;2.60;1.53;;;;;;;;;;5028012;28;20199;-72
2022/04/20 07:05:34;;;;;;;3.47;1.50;;;;;;;;;;5030350;28;20321;-72
2022/04/20 07:08:04;;;;;;;7.87;1.73;;;;;;;;;;5030425;28;20212;-72
2022/04/20 07:10:31;;;;;;;7.50;1.93;;;;;;;;;;5019384;28;20195;-72
2022/04/20 07:12:57;;;;;;;3.90;1.53;;;;;;;;;;5039904;28;20188;-72
2022/04/20 07:15:25;;;;;;;5.93;1.60;;;;;;;;;;5035248;28;20195;-72
2022/04/20 07:17:51;;;;;;;4.43;1.20;;;;;;;;;;5025710;28;20191;-72
2022/04/20 07:20:19;;;;;;;10.87;1.70;;;;;;;;;;5028496;28;20223;-72
2022/04/20 07:22:50;;;;;;;7.20;2.43;;;;;;;;;;5039801;28;20194;-72
2022/04/20 07:25:25;;;;;;;6.40;2.20;;;;;;;;;;5024555;28;20245;-72
2022/04/20 07:27:52;;;;;;;3.63;1.30;;;;;;;;;;5042459;28;20203;-73
2022/04/20 07:30:18;;;;;;;4.60;1.50;;;15.20;99.90;;;;;;5047409;28;20183;-72
2022/04/20 07:32:47;;;;;;;5.47;1.80;;;15.10;99.90;;;;;;5032925;28;20290;-72
2022/04/20 07:35:16;;;;;;;6.23;1.47;;;15.10;99.90;;;;;;5036271;28;20184;-72
2022/04/20 07:37:45;;;;;;;5.10;1.60;;;15.10;99.90;;;;;;5042106;28;20188;-71
2022/04/20 07:40:14;;;;;;;3.03;1.20;;;15.40;99.90;;;;;;5037128;28;20294;-73
2022/04/20 07:42:43;;;;;;;4.70;1.40;;;15.20;99.90;;;;;;5035099;28;20190;-72
2022/04/20 07:45:11;;;;;;;4.80;2.00;;;15.30;99.90;;;;;;5023860;28;20226;-72
2022/04/20 07:47:40;;;;;;;5.67;2.10;;;15.50;99.90;;;;;;5036427;28;20258;-72
2022/04/20 07:50:19;;;;;;;4.43;1.40;;;15.40;99.90;;;;;;5046259;28;20310;-72
2022/04/20 07:52:49;;;;;;;3.93;1.10;;;15.40;99.90;;;;;;5038878;28;20281;-72
2022/04/20 07:55:22;;;;;;;3.67;1.30;;;15.60;99.90;;;;;;5042780;28;20199;-73
2022/04/20 07:57:54;;;;;;;5.87;1.50;;;15.50;99.90;;;;;;5047743;28;20192;-73
2022/04/20 08:00:24;;;;;;;3.20;1.27;;;15.60;99.90;;;;;;5057310;28;20188;-74
2022/04/20 08:03:07;;;;;;;6.23;1.60;;;15.90;99.90;;;;;;5021053;28;20188;-73
2022/04/20 08:05:34;;;;;;;7.67;2.60;;;15.80;99.90;;;;;;5038126;28;20188;-73
2022/04/20 08:08:00;;;;;;;5.37;1.30;;;15.90;99.90;;;;;;5029229;28;20266;-72
2022/04/20 08:10:28;;;;;;;4.30;1.20;;;15.90;99.90;;;;;;5020661;28;20652;-72
2022/04/20 08:12:56;;;;;;;4.53;1.40;;;15.90;99.90;;;;;;5024942;28;20194;-73
2022/04/20 08:15:25;;;;;;;7.20;1.30;;;16.00;99.90;;;;;;5028447;28;20187;-73
2022/04/20 08:17:52;;;;;;;8.03;1.83;;;15.90;99.90;;;;;;5037078;28;20274;-73
2022/04/20 08:20:20;;;;;;;5.20;1.40;;;16.00;99.90;;;;;;5037515;28;20271;-73
2022/04/20 08:22:46;;;;;;;7.33;1.70;;;16.10;99.90;;;;;;5035350;28;20196;-73
2022/04/20 08:25:13;;;;;;;4.30;1.67;;;16.20;99.90;;;;;;5038273;28;20189;-73
2022/04/20 08:27:42;;;;;;;5.80;1.47;;;16.20;99.90;;;;;;5025035;28;20208;-72
2022/04/20 08:30:09;;;;;;;5.90;1.30;;;16.30;99.90;;;;;;5016448;28;20180;-73
2022/04/20 08:32:41;;;;;;;4.03;1.30;;;16.20;99.90;;;;;;5036966;28;20216;-73
2022/04/20 08:35:14;;;;;;;6.87;1.43;;;16.40;99.90;;;;;;5042428;28;20188;-73
2022/04/20 08:37:41;;;;;;;5.97;1.70;;;16.30;99.90;;;;;;5048584;28;20194;-73
2022/04/20 08:40:10;;;;;;;6.77;1.70;;;16.20;99.90;;;;;;5045782;28;20184;-73
2022/04/20 08:42:41;;;;;;;3.67;1.67;;;16.50;99.90;;;;;;5028362;28;20278;-72
2022/04/20 08:45:11;;;;;;;9.70;2.30;;;16.30;99.90;;;;;;5042536;28;20266;-72
2022/04/20 08:47:45;;;;;;;2.93;1.20;;;16.40;99.90;;;;;;5030063;28;20644;-73
2022/04/20 08:50:14;;;;;;;2.63;1.37;;;16.30;99.90;;;;;;5035114;28;20176;-73
2022/04/20 08:52:43;;;;;;;4.30;1.37;;;16.20;99.90;;;;;;5031271;28;20707;-73
2022/04/20 08:55:15;;;;;;;6.43;1.67;;;16.20;99.90;;;;;;5047198;28;20683;-73
2022/04/20 08:57:48;;;;;;;3.60;1.40;;;16.20;99.90;;;;;;5042869;28;20662;-73
2022/04/20 09:00:25;;;;;;;4.13;1.50;;;16.40;99.90;;;;;;5042116;28;20210;-73
2022/04/20 09:03:01;;;;;;;3.13;1.23;;;16.30;99.90;;;;;;5032419;28;20202;-74
2022/04/20 09:05:35;;;;;;;5.13;1.60;;;16.30;99.90;;;;;;5040236;28;20528;-73
2022/04/20 09:08:14;;;;;;;6.27;1.57;;;16.40;99.90;;;;;;5034318;28;20683;-73
2022/04/20 09:10:42;;;;;;;5.60;1.80;;;16.40;99.90;;;;;;5049840;28;20195;-73
2022/04/20 09:13:11;;;;;;;2.90;1.20;;;16.30;99.90;;;;;;5043286;28;20189;-73
2022/04/20 09:15:43;;;;;;;6.83;1.60;;;16.30;99.90;;;;;;5026803;28;20191;-73
2022/04/20 09:18:10;;;;;;;8.83;1.40;;;16.40;99.90;;;;;;5043013;28;20191;-73
2022/04/20 09:20:40;;;;;;;5.23;1.60;;;16.50;99.90;;;;;;5033570;28;20195;-73
2022/04/20 09:23:14;;;;;;;4.67;1.80;;;16.40;99.90;;;;;;5026779;28;20184;-73
2022/04/20 09:25:48;;;;;;;3.67;1.50;;;16.50;99.90;;;;;;5046459;28;21086;-72
2022/04/20 09:28:17;;;;;;;5.53;2.10;;;16.60;99.90;;;;;;5022277;28;20175;-73
2022/04/20 09:30:44;;;;;;;4.70;2.03;;;16.70;99.90;;;;;;5031218;28;20187;-73
2022/04/20 09:33:18;;;;;;;7.07;1.50;;;16.90;99.90;;;;;;5042435;28;20203;-73
2022/04/20 09:35:47;;;;;;;3.93;1.60;;;16.90;99.90;;;;;;5034817;28;20194;-73
2022/04/20 09:38:21;;;;;;;6.63;1.20;;;16.90;99.90;;;;;;5054507;28;20184;-73
2022/04/20 09:40:49;;;;;;;3.73;1.30;;;17.20;99.90;;;;;;5033671;28;20507;-73
2022/04/20 09:43:19;;;;;;;6.37;1.80;;;17.20;99.90;;;;;;5045631;28;20181;-73
2022/04/20 09:49:10;;;;;;;4.17;1.40;;;17.50;99.90;;;;;;5036368;28;20183;-73
2022/04/20 09:51:39;;;;;;;5.83;1.47;;;17.80;99.90;;;;;;5022024;28;20730;-73
2022/04/20 09:54:27;;;;;;;4.80;1.40;;;17.70;99.90;;;;;;5053389;28;20179;-73
2022/04/20 09:57:12;;;;;;;5.33;1.40;;;17.80;99.90;;;;;;5036462;28;20214;-73
2022/04/20 10:00:15;;;;;;;6.17;1.50;;;18.00;99.90;;;;;;5041505;28;20195;-73
2022/04/20 10:02:49;;;;;;;4.37;1.23;;;18.20;99.90;;;;;;5047967;28;20183;-73
2022/04/20 10:05:18;;;;;;;4.37;1.37;;;18.20;99.90;;;;;;5045955;28;20183;-73
2022/04/20 10:07:48;;;;;;;3.60;1.13;;;18.10;99.90;;;;;;5026268;28;20238;-73
2022/04/20 10:10:16;;;;;;;6.17;1.37;;;18.10;99.90;;;;;;5033004;28;20192;-73
2022/04/20 10:12:44;;;;;;;3.23;1.40;;;18.10;99.90;;;;;;5023650;28;20215;-73
2022/04/20 10:18:02;;;;;;;7.57;1.40;;;18.10;99.90;;;;;;5053750;28;20667;-73
2022/04/20 10:20:34;;;;;;;4.47;1.43;;;18.00;99.90;;;;;;5037678;28;20572;-73
2022/04/20 10:23:02;;;;;;;7.77;1.63;;;18.10;99.90;;;;;;5025630;28;20184;-72
2022/04/20 10:25:30;;;;;;;5.87;1.40;;;18.10;99.90;;;;;;5042511;28;20199;-73
2022/04/20 10:28:19;;;;;;;7.10;1.50;;;18.00;99.90;;;;;;5035333;28;20607;-73
2022/04/20 10:31:04;;;;;;;4.97;1.43;;;18.00;99.90;;;;;;5033312;28;20188;-73
2022/04/20 10:33:33;;;;;;;4.97;1.30;;;17.90;99.90;;;;;;5044130;28;20577;-73
2022/04/20 10:36:09;;;;;;;1.70;1.00;;;17.90;99.90;;;;;;5032049;28;20192;-73
2022/04/20 10:38:35;;;;;;;5.13;1.40;;;17.90;99.90;;;;;;5041662;28;20198;-73
2022/04/20 10:41:17;;;;;;;6.83;1.43;;;18.00;99.90;;;;;;5049377;28;20188;-73
2022/04/20 10:43:45;;;;;;;6.83;1.43;;;18.00;99.90;;;;;;5012511;28;20196;-73
2022/04/20 10:46:16;;;;;;;7.83;1.70;;;18.10;99.90;;;;;;5015258;28;20561;-73
2022/04/20 10:49:07;;;;;;;3.80;1.30;;;18.20;99.90;;;;;;5029885;28;20354;-73
2022/04/20 10:51:43;;;;;;;6.60;1.33;;;18.00;99.90;;;;;;5044064;28;20188;-73
2022/04/20 10:54:23;;;;;;;3.53;1.23;;;18.10;99.90;;;;;;5023030;28;20903;-73
2022/04/20 10:56:50;;;;;;;2.90;1.20;;;18.10;99.90;;;;;;5046073;28;20196;-73
2022/04/20 10:59:19;;;;;;;2.93;1.17;;;18.20;99.90;;;;;;5045857;28;20223;-73
2022/04/20 11:02:03;;;;;;;4.87;1.50;;;18.20;99.90;;;;;;5035398;28;20247;-73
2022/04/20 11:04:46;;;;;;;3.43;1.10;;;18.20;99.90;;;;;;5030212;28;20211;-73
2022/04/20 11:07:23;;;;;;;3.90;1.30;;;18.30;99.90;;;;;;5037148;28;20251;-73
2022/04/20 11:09:59;;;;;;;2.17;0.93;;;18.30;99.90;;;;;;5061769;28;21027;-73
2022/04/20 11:21:09;;;;;;;5.57;1.53;;;18.40;99.90;;;;;;5032594;28;20552;-73
2022/04/20 11:24:03;;;;;;;3.27;1.20;;;18.40;99.90;;;;;;5039146;28;20187;-73
2022/04/20 11:26:49;;;;;;;5.30;1.43;;;18.50;99.90;;;;;;5049171;28;20211;-73
2022/04/20 11:29:27;;;;;;;4.73;1.50;;;18.40;99.90;;;;;;5043404;28;20215;-73
2022/04/20 11:32:00;;;;;;;3.50;1.30;;;18.50;99.90;;;;;;5054424;28;20346;-73
2022/04/20 11:34:30;;;;;;;5.47;1.70;;;18.40;99.90;;;;;;5048227;28;20188;-73
2022/04/20 11:37:06;;;;;;;5.63;1.40;;;18.50;99.90;;;;;;5035655;28;20669;-73
2022/04/20 11:39:34;;;;;;;7.00;1.40;;;18.40;99.90;;;;;;5052114;28;20179;-73
2022/04/20 11:42:03;;;;;;;4.93;1.30;;;18.50;99.90;;;;;;5046428;28;20195;-73
2022/04/20 11:44:40;;;;;;;3.17;1.33;;;18.60;99.90;;;;;;5051603;28;20199;-72
2022/04/20 11:47:09;;;;;;;4.20;1.27;;;18.50;99.90;;;;;;5031745;28;20204;-73
2022/04/20 11:49:46;;;;;;;5.33;1.40;;;18.50;99.90;;;;;;5031830;28;20197;-73
2022/04/20 11:52:15;;;;;;;6.47;1.13;;;18.40;99.90;;;;;;5014042;28;20635;-73
2022/04/20 11:54:47;;;;;;;4.93;1.37;;;18.50;99.90;;;;;;5034390;28;20184;-73
2022/04/20 11:57:18;;;;;;;4.23;1.40;;;18.50;99.90;;;;;;5031433;28;20194;-73
2022/04/20 11:59:51;;;;;;;3.87;1.20;;;18.50;99.90;;;;;;5030212;28;20212;-73
2022/04/20 12:02:19;;;;;;;4.93;1.40;;;18.50;99.90;;;;;;5014620;28;20215;-73
2022/04/20 12:04:47;;;;;;;5.47;1.30;;;18.50;99.90;;;;;;5042878;28;20628;-73
2022/04/20 12:07:14;;;;;;;4.37;1.33;;;18.40;99.90;;;;;;5030977;28;20235;-73
2022/04/20 12:09:47;;;;;;;4.40;1.10;;;18.40;99.90;;;;;;5031888;28;20195;-74
2022/04/20 12:12:16;;;;;;;3.93;1.40;;;18.40;99.90;;;;;;5048437;28;20533;-72
2022/04/20 12:14:43;;;;;;;5.00;1.30;;;18.30;99.90;;;;;;5030092;28;20552;-73
2022/04/20 12:17:20;;;;;;;3.27;1.13;;;18.40;99.90;;;;;;5050645;28;20192;-73
2022/04/20 12:19:50;;;;;;;3.20;0.90;;;18.40;99.90;;;;;;5031100;28;20187;-72
2022/04/20 12:22:21;;;;;;;3.90;1.20;;;18.30;99.90;;;;;;5050602;28;20191;-73
2022/04/20 12:24:48;;;;;;;4.77;1.30;;;18.40;99.90;;;;;;5058490;28;20282;-73
2022/04/20 12:27:25;;;;;;;5.20;1.37;;;18.30;99.90;;;;;;5023533;28;20238;-73
2022/04/20 12:29:57;;;;;;;2.90;1.30;;;;;;;;;;5034423;28;20191;-72
2022/04/20 12:32:34;;;;;;;4.03;1.43;;;;;;;;;;5041358;28;20211;-73
2022/04/20 12:35:05;;;;;;;6.57;1.10;;;;;;;;;;5051728;28;20219;-72
2022/04/20 12:37:33;;;;;;;2.57;0.90;;;;;;;;;;5024606;28;20198;-72
2022/04/20 12:40:24;;;;;;;3.43;1.00;;;;;;;;;;5015781;28;20192;-73
2022/04/20 12:43:07;;;;;;;4.27;1.30;;;;;;;;;;5039706;28;20223;-72
2022/04/20 12:45:34;;;;;;;2.57;1.30;;;;;;;;;;5034109;28;20286;-72
2022/04/20 12:48:12;;;;;;;8.33;1.63;;;;;;;;;;5047711;28;20207;-72
2022/04/20 12:50:41;;;;;;;5.73;1.40;;;;;;;;;;5037341;28;20188;-73
2022/04/20 12:53:09;;;;;;;3.47;2.03;;;;;;;;;;5039696;28;20191;-73
2022/04/20 12:55:40;;;;;;;4.33;1.57;;;;;;;;;;5024736;28;20249;-73
2022/04/20 13:04:03;;;;;;;5.50;1.50;;;;;;;;;;5038493;28;20200;-72
2022/04/20 13:06:31;;;;;;;5.23;1.50;;;;;;;;;;5032175;28;20222;-73
2022/04/20 13:09:01;;;;;;;3.50;1.33;;;;;;;;;;5047631;28;20184;-73
2022/04/20 13:11:27;;;;;;;6.53;1.37;;;;;;;;;;5026689;28;20202;-73
2022/04/20 13:13:59;;;;;;;4.27;1.30;;;;;;;;;;5021107;28;20207;-73
2022/04/20 13:16:25;;;;;;;3.17;1.37;;;;;;;;;;5044235;28;20188;-73
2022/04/20 13:18:53;;;;;;;3.77;1.40;;;;;;;;;;5025135;28;20184;-72
2022/04/20 13:21:21;;;;;;;3.33;1.80;;;;;;;;;;5032287;28;20191;-73
2022/04/20 13:23:52;;;;;;;4.90;1.53;;;;;;;;;;5029235;28;20678;-73
2022/04/20 13:29:05;;;;;;;4.73;1.33;;;;;;;;;;5040181;28;20211;-73
2022/04/20 13:31:33;;;;;;;5.90;2.20;;;;;;;;;;5015504;28;20851;-72
2022/04/20 13:34:00;;;;;;;3.80;1.10;;;;;;;;;;5045577;28;20184;-72
2022/04/20 13:36:27;;;;;;;2.97;1.20;;;;;;;;;;5021064;28;20184;-72
2022/04/20 13:38:55;;;;;;;6.37;1.30;;;;;;;;;;5040891;28;20242;-73
2022/04/20 13:41:25;;;;;;;3.00;1.43;;;;;;;;;;5025545;28;20192;-73
2022/04/20 13:43:53;;;;;;;4.33;1.53;;;;;;;;;;5042802;28;20188;-73
2022/04/20 13:46:20;;;;;;;6.27;2.33;;;;;;;;;;5033757;28;20204;-72
2022/04/20 13:48:47;;;;;;;4.93;1.47;;;;;;;;;;5036136;28;20185;-73
2022/04/20 13:51:14;;;;;;;4.73;1.20;;;;;;;;;;5038220;28;20184;-73
2022/04/20 13:53:41;;;;;;;3.90;1.10;;;;;;;;;;5042185;28;20186;-73
2022/04/20 13:56:11;;;;;;;4.13;1.50;;;;;;;;;;5037480;28;20185;-73
2022/04/20 13:58:37;;;;;;;3.23;1.73;;;;;;;;;;5033266;28;20206;-73
2022/04/20 14:01:04;;;;;;;2.37;1.17;;;;;;;;;;5022066;28;20188;-73
2022/04/20 14:03:30;;;;;;;2.23;1.00;;;;;;;;;;5030169;28;20199;-73
2022/04/20 14:05:57;;;;;;;5.33;1.10;;;;;;;;;;5024117;28;20592;-72
2022/04/20 14:08:24;;;;;;;1.43;0.73;;;;;;;;;;5036017;28;20190;-73
2022/04/20 14:10:50;;;;;;;3.53;1.40;;;;;;;;;;5043943;28;20183;-72
2022/04/20 14:13:18;;;;;;;5.83;1.20;;;;;;;;;;5039307;28;20195;-73
2022/04/20 14:15:45;;;;;;;4.30;1.30;;;;;;;;;;5042614;28;20183;-73
2022/04/20 14:18:11;;;;;;;3.20;1.40;;;;;;;;;;5018793;28;20184;-73
2022/04/20 14:20:40;;;;;;;2.57;1.37;;;;;;;;;;5027291;28;20273;-73